Time;durP1;ratioP1;P1;durP2;ratioP2;P2;SDS_P1;SDS_P2;PMS_P1;PMS_P2;Temp;Humidity;BMP_temperature;BMP_pressure;BME280_temperature;BME280_humidity;BME280_pressure;Samples;Min_cycle;Max_cycle;Signal;HPM_P1;HPM_P2
2022/11/15 00:04:58;;;;;;;127.25;95.38;;;21.20;53.30;;;;;;4843256;55;21006;-44
2022/11/15 00:09:59;;;;;;;122.82;92.72;;;21.20;53.30;;;;;;5020815;55;21105;-42
2022/11/15 00:14:59;;;;;;;128.25;94.20;;;21.20;53.30;;;;;;4760730;55;20994;-40
2022/11/15 00:20:00;;;;;;;115.07;87.88;;;21.20;53.50;;;;;;4745562;55;21003;-44
2022/11/15 00:25:01;;;;;;;119.03;89.43;;;21.20;53.40;;;;;;4745175;55;21062;-44
2022/11/15 00:30:02;;;;;;;118.75;91.10;;;21.20;53.40;;;;;;4901100;55;21007;-45
2022/11/15 00:35:04;;;;;;;118.55;90.30;;;21.20;53.40;;;;;;4848192;55;21018;-43
2022/11/15 00:40:06;;;;;;;123.53;91.32;;;21.20;53.40;;;;;;4745593;59;20987;-41
2022/11/15 00:45:08;;;;;;;117.70;87.90;;;21.20;54.00;;;;;;4745278;59;20990;-46
2022/11/15 00:50:09;;;;;;;117.55;89.07;;;21.20;53.40;;;;;;4835092;55;21002;-42
2022/11/15 00:55:16;;;;;;;119.25;89.57;;;21.20;53.40;;;;;;4856819;55;21100;-36
2022/11/15 01:00:17;;;;;;;120.47;89.50;;;21.20;53.40;;;;;;4745477;55;20994;-47
2022/11/15 01:05:18;;;;;;;116.95;88.47;;;21.20;53.40;;;;;;4773236;55;21482;-45
2022/11/15 01:10:19;;;;;;;115.57;87.43;;;21.20;53.50;;;;;;4761534;55;20982;-45
2022/11/15 01:15:19;;;;;;;112.85;85.78;;;21.20;53.40;;;;;;4942425;55;21578;-46
2022/11/15 01:20:20;;;;;;;107.95;83.53;;;21.20;53.40;;;;;;4745373;55;21062;-48
2022/11/15 01:25:21;;;;;;;111.60;84.82;;;21.20;53.40;;;;;;5091561;55;21010;-42
2022/11/15 01:30:22;;;;;;;110.65;84.15;;;21.20;53.40;;;;;;4886069;55;21098;-46
2022/11/15 01:35:23;;;;;;;114.43;87.15;;;21.20;53.50;;;;;;4744941;59;21053;-46
2022/11/15 01:40:23;;;;;;;110.78;84.20;;;21.20;53.50;;;;;;4883807;55;21077;-43
2022/11/15 01:45:24;;;;;;;110.90;84.75;;;21.20;53.50;;;;;;4856390;55;21006;-45
2022/11/15 01:50:30;;;;;;;110.88;84.68;;;21.20;53.40;;;;;;4745153;59;21050;-42
2022/11/15 01:55:32;;;;;;;110.55;82.97;;;21.20;53.40;;;;;;4779320;55;21045;-48
2022/11/15 02:00:33;;;;;;;108.22;82.32;;;21.20;53.40;;;;;;4951891;55;20982;-45
2022/11/15 02:05:36;;;;;;;105.85;79.37;;;21.20;53.40;;;;;;4903800;55;21677;-44
2022/11/15 02:10:37;;;;;;;108.95;82.97;;;21.20;53.50;;;;;;4798014;55;21484;-44
2022/11/15 02:15:58;;;;;;;109.85;80.22;;;21.20;53.50;;;;;;4745771;55;21021;-40
2022/11/15 02:21:18;;;;;;;101.87;78.50;;;21.20;53.50;;;;;;4940060;55;20998;-45
2022/11/15 02:26:49;;;;;;;104.18;78.72;;;21.20;53.70;;;;;;5151983;55;21061;-34
2022/11/15 02:32:15;;;;;;;103.97;80.95;;;21.20;53.50;;;;;;4889077;55;21010;-44
2022/11/15 02:39:13;;;;;;;102.93;78.90;;;21.20;53.50;;;;;;5203559;55;20983;-42
2022/11/15 02:45:19;;;;;;;104.40;78.00;;;21.20;53.60;;;;;;4933547;55;21022;-44
2022/11/15 02:50:23;;;;;;;106.03;78.15;;;21.20;53.60;;;;;;5230276;55;21001;-38
2022/11/15 02:55:35;;;;;;;100.50;75.68;;;21.20;53.50;;;;;;4993069;55;21097;-43
2022/11/15 03:00:43;;;;;;;106.43;78.97;;;21.20;53.70;;;;;;4828733;55;21058;-49
2022/11/15 03:06:20;;;;;;;97.15;73.72;;;21.20;53.50;;;;;;4851440;55;21081;-33
2022/11/15 03:11:22;;;;;;;100.15;77.55;;;21.10;53.50;;;;;;4745321;59;20994;-37
2022/11/15 03:19:00;;;;;;;99.40;74.22;;;21.20;53.50;;;;;;4890597;55;21054;-42
2022/11/15 03:24:05;;;;;;;102.55;75.30;;;21.20;53.50;;;;;;4896486;55;21026;-45
2022/11/15 03:29:14;;;;;;;102.93;75.53;;;21.20;53.50;;;;;;4745996;59;20983;-33
2022/11/15 03:34:23;;;;;;;105.25;78.07;;;21.20;53.50;;;;;;4914117;55;21041;-40
2022/11/15 03:39:25;;;;;;;100.47;76.03;;;21.20;53.50;;;;;;4931436;55;20998;-48
2022/11/15 03:45:29;;;;;;;101.85;76.28;;;21.10;53.50;;;;;;4857385;55;20998;-44
2022/11/15 03:50:30;;;;;;;99.55;75.28;;;21.20;53.60;;;;;;5209607;55;21016;-39
2022/11/15 03:55:32;;;;;;;99.80;73.43;;;21.20;53.70;;;;;;4773792;55;21018;-36
2022/11/15 04:00:33;;;;;;;96.28;72.93;;;21.20;53.60;;;;;;4933294;55;21057;-32
2022/11/15 04:05:34;;;;;;;99.68;75.05;;;21.10;53.60;;;;;;4818165;55;21034;-46
2022/11/15 04:10:35;;;;;;;96.43;72.95;;;21.10;53.60;;;;;;5084677;55;21565;-43
2022/11/15 04:15:36;;;;;;;96.70;73.15;;;21.10;53.60;;;;;;4920243;55;21097;-41
2022/11/15 04:26:00;;;;;;;100.38;74.22;;;21.20;53.70;;;;;;4745180;55;21085;-43
2022/11/15 04:31:00;;;;;;;95.60;70.97;;;21.20;53.70;;;;;;4745558;55;21006;-39
2022/11/15 04:41:20;;;;;;;93.97;70.57;;;21.10;53.60;;;;;;4744241;59;21082;-45
2022/11/15 04:46:23;;;;;;;96.43;71.70;;;21.10;53.60;;;;;;4744100;59;21014;-48
2022/11/15 04:51:24;;;;;;;95.65;69.45;;;21.10;53.70;;;;;;4769426;55;21049;-38
2022/11/15 04:56:25;;;;;;;95.32;70.35;;;21.10;53.70;;;;;;4799657;55;21074;-44
2022/11/15 05:01:26;;;;;;;95.53;72.35;;;21.10;53.70;;;;;;4831232;55;21074;-43
2022/11/15 05:06:27;;;;;;;94.47;71.00;;;21.20;53.80;;;;;;4895191;55;21037;-41
2022/11/15 05:11:27;;;;;;;91.53;68.78;;;21.10;53.70;;;;;;4877005;55;21061;-47
2022/11/15 05:16:28;;;;;;;93.32;69.32;;;21.10;53.70;;;;;;4788409;55;21013;-46
2022/11/15 05:21:29;;;;;;;95.97;70.43;;;21.10;54.40;;;;;;4745247;59;21010;-46
2022/11/15 05:26:30;;;;;;;89.70;67.12;;;21.20;53.90;;;;;;4873141;55;21029;-42
2022/11/15 05:31:31;;;;;;;91.40;69.05;;;21.10;53.80;;;;;;4745263;59;21463;-47
2022/11/15 05:36:49;;;;;;;91.70;67.82;;;21.10;53.90;;;;;;5205429;55;21001;-38
2022/11/15 05:41:54;;;;;;;90.78;68.00;;;21.10;53.80;;;;;;4977140;55;21523;-46
2022/11/15 05:46:56;;;;;;;92.90;67.70;;;21.10;53.90;;;;;;4967851;55;21014;-45
2022/11/15 05:51:58;;;;;;;94.72;69.72;;;21.10;53.90;;;;;;4813239;55;20982;-42
2022/11/15 05:56:59;;;;;;;95.32;68.78;;;21.10;53.90;;;;;;4913883;55;21085;-45
2022/11/15 06:02:00;;;;;;;92.60;67.15;;;21.10;53.90;;;;;;4857275;55;21484;-44
2022/11/15 06:07:01;;;;;;;93.82;69.32;;;21.10;53.90;;;;;;5229943;55;21014;-44
2022/11/15 06:12:03;;;;;;;92.43;68.35;;;21.10;53.90;;;;;;4885187;55;21006;-43
2022/11/15 06:17:03;;;;;;;90.85;67.85;;;21.10;54.00;;;;;;4744277;59;21022;-45
2022/11/15 06:22:05;;;;;;;88.80;66.35;;;21.10;53.90;;;;;;4824169;55;20998;-40
2022/11/15 06:27:05;;;;;;;92.10;69.45;;;21.10;53.90;;;;;;4999954;55;21526;-44
2022/11/15 06:32:06;;;;;;;90.95;64.12;;;21.10;54.00;;;;;;4749984;55;21086;-42
2022/11/15 06:37:07;;;;;;;92.15;68.15;;;21.10;54.00;;;;;;4907798;55;21013;-42
2022/11/15 06:42:10;;;;;;;91.53;68.65;;;21.10;54.00;;;;;;4744885;55;21065;-46
2022/11/15 06:47:11;;;;;;;94.68;69.68;;;21.10;53.90;;;;;;4744785;59;20993;-44
2022/11/15 06:52:12;;;;;;;93.35;68.28;;;21.10;54.00;;;;;;4760019;55;21163;-46
2022/11/15 06:57:13;;;;;;;90.93;67.40;;;21.10;54.00;;;;;;4873935;55;21463;-45
2022/11/15 07:02:14;;;;;;;93.22;69.95;;;21.10;54.00;;;;;;4882845;55;21156;-49
2022/11/15 07:07:14;;;;;;;91.72;67.10;;;21.10;54.00;;;;;;4744730;59;21086;-43
2022/11/15 07:12:15;;;;;;;92.40;69.35;;;21.10;54.00;;;;;;4745189;56;21495;-42
2022/11/15 07:17:16;;;;;;;93.75;69.03;;;21.10;54.00;;;;;;4831439;55;21066;-42
2022/11/15 07:22:17;;;;;;;94.03;70.45;;;21.10;54.00;;;;;;4877620;55;21066;-46
2022/11/15 07:27:17;;;;;;;92.28;69.25;;;21.10;54.00;;;;;;4831931;55;21002;-42
2022/11/15 07:32:18;;;;;;;95.38;71.60;;;21.10;54.00;;;;;;4811353;55;21084;-43
2022/11/15 07:37:19;;;;;;;97.45;70.97;;;21.10;54.00;;;;;;4895724;55;21089;-45
2022/11/15 07:47:39;;;;;;;99.55;72.50;;;21.10;54.10;;;;;;4745062;55;21081;-42
2022/11/15 07:52:40;;;;;;;95.68;70.45;;;21.10;54.00;;;;;;4901516;55;21312;-40
2022/11/15 07:57:41;;;;;;;101.32;73.50;;;21.10;54.70;;;;;;4743537;59;21503;-46
2022/11/15 08:02:41;;;;;;;110.28;79.37;;;21.10;54.40;;;;;;4806012;55;20998;-48
2022/11/15 08:07:42;;;;;;;111.78;80.07;;;21.20;54.50;;;;;;4917214;55;21081;-42
2022/11/15 08:12:43;;;;;;;111.37;79.80;;;21.20;55.90;;;;;;4745252;59;21102;-44
2022/11/15 08:17:44;;;;;;;111.07;81.82;;;21.30;55.70;;;;;;4744502;59;21513;-45
2022/11/15 08:22:45;;;;;;;118.03;86.70;;;21.30;56.90;;;;;;4816533;55;21042;-36
2022/11/15 08:27:46;;;;;;;118.62;84.55;;;21.30;56.50;;;;;;4848603;55;21065;-46
2022/11/15 08:32:47;;;;;;;122.80;87.47;;;21.30;56.20;;;;;;4851657;55;21050;-30
2022/11/15 08:37:49;;;;;;;133.02;92.47;;;21.30;56.20;;;;;;4826178;55;21105;-43
2022/11/15 08:42:49;;;;;;;130.90;93.12;;;21.40;56.10;;;;;;4959097;55;21002;-44
2022/11/15 08:47:50;;;;;;;134.68;94.40;;;21.40;56.20;;;;;;4868157;55;20990;-42
2022/11/15 08:52:51;;;;;;;134.87;96.32;;;21.40;55.70;;;;;;4902928;55;21018;-43
2022/11/15 08:57:52;;;;;;;139.90;99.72;;;21.30;55.50;;;;;;4913648;55;21069;-35
2022/11/15 09:02:53;;;;;;;142.20;101.00;;;21.30;55.30;;;;;;4745556;56;21048;-40
2022/11/15 09:07:54;;;;;;;147.05;104.93;;;21.30;55.10;;;;;;4744612;59;21065;-38
2022/11/15 09:12:57;;;;;;;151.98;106.95;;;21.30;55.20;;;;;;4764630;55;21459;-43
2022/11/15 09:17:59;;;;;;;151.48;108.25;;;21.40;55.10;;;;;;4757790;55;21082;-40
2022/11/15 09:23:04;;;;;;;154.20;110.47;;;21.40;55.00;;;;;;5068707;55;21484;-34
2022/11/15 09:28:07;;;;;;;160.60;111.72;;;21.40;54.90;;;;;;4784050;55;21499;-33
2022/11/15 09:33:10;;;;;;;163.30;116.65;;;21.30;54.80;;;;;;4843660;55;21057;-37
2022/11/15 09:38:11;;;;;;;166.43;116.70;;;21.30;54.70;;;;;;4870967;55;21022;-33
2022/11/15 09:43:49;;;;;;;168.15;117.95;;;21.40;54.70;;;;;;4992721;55;21599;-32
2022/11/15 09:48:56;;;;;;;171.87;121.97;;;21.40;54.80;;;;;;4753584;55;21074;-42
2022/11/15 09:54:28;;;;;;;170.93;119.60;;;21.40;54.90;;;;;;4782255;55;21464;-43
2022/11/15 10:00:38;;;;;;;170.73;119.47;;;21.40;55.10;;;;;;4809812;55;21511;-40
2022/11/15 10:05:45;;;;;;;188.37;131.98;;;21.50;55.50;;;;;;4744473;57;21111;-34
2022/11/15 10:10:49;;;;;;;188.82;132.20;;;21.50;55.80;;;;;;4846640;55;20990;-31
2022/11/15 10:15:53;;;;;;;184.32;131.20;;;21.60;55.90;;;;;;4745088;59;20975;-44
2022/11/15 10:21:12;;;;;;;183.77;128.32;;;21.60;56.20;;;;;;4745291;59;20990;-34
2022/11/15 10:26:16;;;;;;;184.10;131.45;;;21.70;56.40;;;;;;4812915;55;21467;-39
2022/11/15 10:31:24;;;;;;;190.62;138.02;;;21.70;56.70;;;;;;4744926;59;21057;-38
2022/11/15 10:36:25;;;;;;;200.70;140.23;;;21.70;57.00;;;;;;4780518;55;21495;-38
2022/11/15 10:41:38;;;;;;;193.80;142.10;;;21.70;57.20;;;;;;4750093;55;20982;-32
2022/11/15 10:46:41;;;;;;;203.27;143.57;;;21.70;57.30;;;;;;5117702;55;21006;-34
2022/11/15 10:52:24;;;;;;;201.25;146.43;;;21.80;57.50;;;;;;4789737;55;21119;-33
2022/11/15 10:57:28;;;;;;;198.00;142.50;;;21.80;57.60;;;;;;4765133;55;21535;-30
2022/11/15 11:02:38;;;;;;;208.10;149.20;;;21.80;57.80;;;;;;4819377;55;21010;-37
2022/11/15 11:07:40;;;;;;;199.93;144.40;;;21.90;57.90;;;;;;4745067;59;21583;-44
2022/11/15 11:12:41;;;;;;;202.52;143.87;;;21.90;58.00;;;;;;4745403;59;21547;-40
2022/11/15 11:18:27;;;;;;;196.05;144.57;;;21.90;58.10;;;;;;4888186;55;21010;-26
2022/11/15 11:25:11;;;;;;;196.50;141.63;;;21.90;58.20;;;;;;4768152;55;21471;-34
2022/11/15 11:30:29;;;;;;;196.48;139.27;;;22.00;58.10;;;;;;4787110;55;21062;-27
2022/11/15 11:37:08;;;;;;;195.05;140.80;;;22.00;58.10;;;;;;4778843;55;21022;-35
2022/11/15 11:49:09;;;;;;;186.20;136.10;;;21.90;58.10;;;;;;4743643;59;21088;-32
2022/11/15 11:54:18;;;;;;;194.00;141.18;;;21.90;57.90;;;;;;4935127;55;21472;-30
2022/11/15 11:59:49;;;;;;;186.55;134.80;;;21.90;57.70;;;;;;4833313;55;21074;-36
2022/11/15 12:04:53;;;;;;;200.95;143.32;;;21.90;57.60;;;;;;4827241;55;21042;-31
2022/11/15 12:11:51;;;;;;;196.05;140.62;;;21.80;57.40;;;;;;4829100;55;21038;-41
2022/11/15 12:16:52;;;;;;;200.27;140.10;;;21.80;57.40;;;;;;4855112;55;21009;-35
2022/11/15 12:23:32;;;;;;;196.63;141.15;;;21.80;57.30;;;;;;4896415;55;21061;-39
2022/11/15 12:30:31;;;;;;;198.95;142.13;;;21.80;57.30;;;;;;4784299;55;21070;-37
2022/11/15 12:35:39;;;;;;;201.82;143.77;;;21.80;57.30;;;;;;4745316;55;22008;-39
2022/11/15 12:41:16;;;;;;;204.00;144.40;;;21.80;57.20;;;;;;4823739;55;21046;-27
2022/11/15 12:51:08;;;;;;;208.98;145.27;;;21.70;57.10;;;;;;4901859;55;21464;-34
2022/11/15 12:56:21;;;;;;;212.12;148.25;;;21.70;57.10;;;;;;4777798;55;21041;-36
2022/11/15 13:02:57;;;;;;;236.68;162.77;;;21.70;57.00;;;;;;4756569;55;20974;-37
2022/11/15 13:07:58;;;;;;;235.48;160.60;;;21.70;57.20;;;;;;4744650;55;21037;-43
2022/11/15 13:13:07;;;;;;;217.95;157.20;;;21.80;57.80;;;;;;4769492;55;21484;-42
2022/11/15 13:18:28;;;;;;;237.85;164.75;;;21.80;58.10;;;;;;5035343;55;21125;-41
2022/11/15 13:23:29;;;;;;;240.02;162.20;;;21.80;58.20;;;;;;4745543;55;21006;-41
2022/11/15 13:29:00;;;;;;;249.88;164.27;;;21.90;58.60;;;;;;4920765;55;20982;-29
2022/11/15 13:34:46;;;;;;;265.83;167.37;;;21.90;58.70;;;;;;4791055;55;21437;-43
2022/11/15 13:39:50;;;;;;;275.87;171.00;;;21.90;58.80;;;;;;5042151;55;21512;-28
2022/11/15 13:44:57;;;;;;;271.77;166.57;;;21.90;59.00;;;;;;4888727;55;21510;-28
2022/11/15 13:49:59;;;;;;;287.23;172.77;;;21.90;59.10;;;;;;5060393;55;21548;-32
2022/11/15 13:55:15;;;;;;;304.13;178.90;;;22.00;59.30;;;;;;4775562;55;20994;-28
2022/11/15 14:00:42;;;;;;;310.93;175.10;;;22.00;59.30;;;;;;4847547;55;20970;-32
2022/11/15 14:05:44;;;;;;;311.85;178.10;;;22.00;59.40;;;;;;4834440;55;21570;-31
2022/11/15 14:10:45;;;;;;;321.23;178.12;;;22.00;59.50;;;;;;4825371;55;21002;-33
2022/11/15 14:15:46;;;;;;;331.17;186.23;;;22.00;59.40;;;;;;4847939;55;21082;-35
2022/11/15 14:20:47;;;;;;;336.83;184.57;;;22.00;59.60;;;;;;4893498;55;21479;-35
2022/11/15 14:25:55;;;;;;;314.63;171.07;;;22.00;59.50;;;;;;4914948;55;21021;-37
2022/11/15 14:30:58;;;;;;;333.90;182.98;;;22.00;59.50;;;;;;4785230;55;21006;-44
2022/11/15 14:36:21;;;;;;;321.48;179.55;;;21.90;59.40;;;;;;4742765;59;21070;-48
2022/11/15 14:41:32;;;;;;;332.67;186.57;;;21.90;59.40;;;;;;4800099;55;21552;-39
2022/11/15 14:46:33;;;;;;;322.63;178.87;;;21.90;59.30;;;;;;4745211;55;21496;-38
2022/11/15 14:51:34;;;;;;;320.73;178.27;;;21.80;59.30;;;;;;5030765;55;21066;-46
2022/11/15 14:56:34;;;;;;;314.65;177.27;;;21.80;59.30;;;;;;4858962;55;21198;-46
2022/11/15 15:01:35;;;;;;;311.00;173.82;;;21.80;59.30;;;;;;4744891;55;21111;-40
2022/11/15 15:06:36;;;;;;;304.30;173.15;;;21.70;59.20;;;;;;4744093;59;21022;-40
2022/11/15 15:11:37;;;;;;;303.37;170.55;;;21.70;59.20;;;;;;4745124;59;21506;-43
2022/11/15 15:16:38;;;;;;;304.92;169.70;;;21.70;59.10;;;;;;4744284;59;21026;-41
2022/11/15 15:21:39;;;;;;;299.52;169.55;;;21.70;59.10;;;;;;4816938;55;21081;-48
2022/11/15 15:26:40;;;;;;;291.17;163.32;;;21.70;59.10;;;;;;4947597;55;21006;-42
2022/11/15 15:31:41;;;;;;;292.02;164.82;;;21.70;59.10;;;;;;4850595;55;21062;-42
2022/11/15 15:36:42;;;;;;;286.87;164.23;;;21.70;59.00;;;;;;4852441;55;21093;-43
2022/11/15 15:41:42;;;;;;;294.15;166.95;;;21.70;59.00;;;;;;4745142;59;21077;-39
2022/11/15 15:46:43;;;;;;;276.27;159.63;;;21.60;58.90;;;;;;4785843;55;21471;-45
2022/11/15 15:51:44;;;;;;;282.35;160.52;;;21.60;58.80;;;;;;4745114;59;21482;-49
2022/11/15 15:56:45;;;;;;;283.20;163.15;;;21.60;58.90;;;;;;4744602;55;21062;-44
2022/11/15 16:01:46;;;;;;;278.62;161.62;;;21.60;58.80;;;;;;4744990;59;21017;-38
2022/11/15 16:06:46;;;;;;;273.30;155.18;;;21.60;59.40;;;;;;4872783;55;21558;-45
2022/11/15 16:11:47;;;;;;;263.62;154.30;;;21.60;58.70;;;;;;4778122;55;21066;-48
2022/11/15 16:16:48;;;;;;;272.15;157.57;;;21.60;58.70;;;;;;5141048;55;21178;-44
2022/11/15 16:21:49;;;;;;;272.23;156.37;;;21.60;58.70;;;;;;4827793;55;21087;-44
2022/11/15 16:26:51;;;;;;;270.90;153.77;;;21.60;58.60;;;;;;4787100;55;21006;-48
2022/11/15 16:31:52;;;;;;;252.65;149.98;;;21.60;58.60;;;;;;4974304;55;21057;-42
2022/11/15 16:36:54;;;;;;;273.58;158.25;;;21.60;58.60;;;;;;4785712;55;21053;-46
2022/11/15 16:41:54;;;;;;;262.85;157.43;;;21.50;58.50;;;;;;4995565;55;21002;-45
2022/11/15 16:46:55;;;;;;;254.43;151.37;;;21.50;58.50;;;;;;4744867;59;21028;-34
2022/11/15 16:51:56;;;;;;;265.45;157.02;;;21.60;58.50;;;;;;5056428;55;21054;-41
2022/11/15 16:56:57;;;;;;;257.98;152.73;;;21.50;58.50;;;;;;4795506;55;21128;-47
2022/11/15 17:01:57;;;;;;;252.10;151.63;;;21.50;58.40;;;;;;4845895;55;21057;-47
2022/11/15 17:06:59;;;;;;;243.52;147.60;;;21.50;58.30;;;;;;4744380;59;21085;-47
2022/11/15 17:11:59;;;;;;;251.95;151.68;;;21.50;58.30;;;;;;4856766;55;21006;-45
2022/11/15 17:17:00;;;;;;;250.82;148.80;;;21.50;58.30;;;;;;4744591;59;20998;-49
2022/11/15 17:22:01;;;;;;;260.67;153.07;;;21.50;58.30;;;;;;4745409;59;21483;-42
2022/11/15 17:27:02;;;;;;;247.88;149.98;;;21.50;58.80;;;;;;4877174;55;21074;-42
2022/11/15 17:32:03;;;;;;;243.15;146.93;;;21.50;58.20;;;;;;4916569;55;21022;-49
2022/11/15 17:37:04;;;;;;;240.57;145.45;;;21.50;58.20;;;;;;4743746;59;21488;-39
2022/11/15 17:42:04;;;;;;;245.65;149.15;;;21.50;58.20;;;;;;5156243;55;21077;-43
2022/11/15 17:47:05;;;;;;;249.70;152.35;;;21.50;58.10;;;;;;4931753;55;21037;-38
2022/11/15 17:52:06;;;;;;;245.82;149.80;;;21.50;58.10;;;;;;4764891;55;21077;-47
2022/11/15 17:57:07;;;;;;;239.70;149.30;;;21.50;58.10;;;;;;4773617;55;21011;-41
2022/11/15 18:02:12;;;;;;;248.55;150.45;;;21.50;58.10;;;;;;4858216;55;21019;-46
2022/11/15 18:07:12;;;;;;;231.55;143.43;;;21.50;58.10;;;;;;4744346;59;21574;-47
2022/11/15 18:12:13;;;;;;;232.70;145.55;;;21.50;58.10;;;;;;4794703;55;21045;-45
2022/11/15 18:17:14;;;;;;;241.35;147.60;;;21.50;58.00;;;;;;4801462;55;21065;-45
2022/11/15 18:22:15;;;;;;;238.45;150.35;;;21.50;58.00;;;;;;4744588;59;21006;-37
2022/11/15 18:27:16;;;;;;;246.40;148.15;;;21.50;58.00;;;;;;4959509;55;21064;-49
2022/11/15 18:32:16;;;;;;;228.30;144.98;;;21.50;58.00;;;;;;4939719;55;21618;-43
2022/11/15 18:37:17;;;;;;;235.98;148.18;;;21.50;57.90;;;;;;4746220;55;21496;-41
2022/11/15 18:42:18;;;;;;;236.93;144.15;;;21.50;57.90;;;;;;4761108;55;21021;-44
2022/11/15 18:47:19;;;;;;;232.57;144.98;;;21.50;57.90;;;;;;4962576;55;21105;-48
2022/11/15 18:52:20;;;;;;;229.98;142.85;;;21.50;57.90;;;;;;4785378;55;21014;-48
2022/11/15 18:57:20;;;;;;;230.02;146.60;;;21.50;57.90;;;;;;4744329;59;21530;-50
2022/11/15 19:02:21;;;;;;;231.32;147.62;;;21.50;57.90;;;;;;4744969;59;21063;-39
2022/11/15 19:07:22;;;;;;;233.30;145.77;;;21.40;57.80;;;;;;4820300;55;21069;-49
2022/11/15 19:12:23;;;;;;;233.93;146.55;;;21.50;57.80;;;;;;4787132;55;21495;-40
2022/11/15 19:17:24;;;;;;;234.48;148.93;;;21.50;57.80;;;;;;4745054;55;21005;-47
2022/11/15 19:22:24;;;;;;;231.25;144.50;;;21.50;57.90;;;;;;4767392;55;20966;-43
2022/11/15 19:27:25;;;;;;;228.73;145.93;;;21.50;57.70;;;;;;4767726;55;21101;-46
2022/11/15 19:32:27;;;;;;;230.62;146.05;;;21.40;57.70;;;;;;4763253;55;20983;-47
2022/11/15 19:37:28;;;;;;;224.60;142.35;;;21.40;57.70;;;;;;4842614;55;21472;-46
2022/11/15 19:42:29;;;;;;;234.20;145.45;;;21.40;57.60;;;;;;4844103;55;21025;-42
2022/11/15 19:47:29;;;;;;;225.82;143.13;;;21.40;57.60;;;;;;4807767;55;21054;-46
2022/11/15 19:52:30;;;;;;;224.65;140.12;;;21.40;57.60;;;;;;5059379;55;21005;-48
2022/11/15 19:57:31;;;;;;;221.95;140.62;;;21.40;57.70;;;;;;5096383;55;20998;-40
2022/11/15 20:02:32;;;;;;;230.18;143.62;;;21.40;57.70;;;;;;4904274;55;20982;-44
2022/11/15 20:07:33;;;;;;;222.55;141.18;;;21.40;57.60;;;;;;4911743;55;21086;-48
2022/11/15 20:12:34;;;;;;;220.60;141.27;;;21.40;57.60;;;;;;4916081;55;21483;-35
2022/11/15 20:17:34;;;;;;;226.90;141.05;;;21.40;57.60;;;;;;4878944;55;21022;-38
2022/11/15 20:22:35;;;;;;;220.77;140.55;;;21.40;57.50;;;;;;4822563;55;21061;-42
2022/11/15 20:27:39;;;;;;;232.20;147.90;;;21.40;57.50;;;;;;4745265;55;20990;-41
2022/11/15 20:32:40;;;;;;;219.18;138.75;;;21.40;57.50;;;;;;4745319;59;21599;-47
2022/11/15 20:37:41;;;;;;;220.00;139.35;;;21.40;57.50;;;;;;4805355;55;21476;-44
2022/11/15 20:42:41;;;;;;;217.80;138.65;;;21.40;58.10;;;;;;4788718;55;21061;-43
2022/11/15 20:47:42;;;;;;;219.18;140.25;;;21.40;57.40;;;;;;4848804;55;20998;-46
2022/11/15 20:52:43;;;;;;;223.60;142.20;;;21.40;57.40;;;;;;5190919;55;21121;-43
2022/11/15 20:57:44;;;;;;;220.12;142.57;;;21.40;57.40;;;;;;4865921;55;21634;-43
2022/11/15 21:02:48;;;;;;;213.68;136.23;;;21.40;57.30;;;;;;4751557;55;21065;-46
2022/11/15 21:07:48;;;;;;;210.15;134.77;;;21.40;58.00;;;;;;5230467;55;20994;-43
2022/11/15 21:12:49;;;;;;;213.75;137.90;;;21.40;57.30;;;;;;4745219;59;21491;-46
2022/11/15 21:17:50;;;;;;;208.63;137.37;;;21.40;57.30;;;;;;4821875;55;21472;-43
2022/11/15 21:22:51;;;;;;;202.18;133.40;;;21.40;57.30;;;;;;4745492;59;21057;-41
2022/11/15 21:27:52;;;;;;;207.77;132.70;;;21.40;57.20;;;;;;4901168;55;21029;-37
2022/11/15 21:32:53;;;;;;;203.55;132.57;;;21.40;57.10;;;;;;4788473;55;21484;-43
2022/11/15 21:37:53;;;;;;;202.65;133.55;;;21.40;57.10;;;;;;5035620;55;21503;-43
2022/11/15 21:42:54;;;;;;;206.65;135.75;;;21.40;57.10;;;;;;4856749;55;20994;-43
2022/11/15 21:47:55;;;;;;;198.15;132.00;;;21.30;57.00;;;;;;4854585;55;21005;-45
2022/11/15 21:52:56;;;;;;;199.57;131.23;;;21.40;57.10;;;;;;4787771;55;21071;-38
2022/11/15 21:57:57;;;;;;;200.98;129.90;;;21.30;57.00;;;;;;4826939;55;21097;-48
2022/11/15 22:02:57;;;;;;;193.65;128.27;;;21.30;56.90;;;;;;4875754;55;21116;-43
2022/11/15 22:08:00;;;;;;;193.85;129.70;;;21.30;56.90;;;;;;4744647;59;21029;-44
2022/11/15 22:13:00;;;;;;;189.23;127.80;;;21.30;56.90;;;;;;4744889;59;21026;-46
2022/11/15 22:18:01;;;;;;;194.70;128.95;;;21.30;56.80;;;;;;4991101;55;21077;-44
2022/11/15 22:23:02;;;;;;;186.62;124.18;;;21.30;56.90;;;;;;4876295;55;21017;-38
2022/11/15 22:28:03;;;;;;;186.75;124.60;;;21.30;56.80;;;;;;5182285;55;21042;-42
2022/11/15 22:33:04;;;;;;;179.50;121.32;;;21.30;56.70;;;;;;4864614;55;20994;-46
2022/11/15 22:38:06;;;;;;;180.82;123.30;;;21.30;56.70;;;;;;5043419;55;21484;-45
2022/11/15 22:43:07;;;;;;;176.85;122.30;;;21.30;56.60;;;;;;4744991;59;21113;-42
2022/11/15 22:48:08;;;;;;;184.48;124.22;;;21.30;56.70;;;;;;4808507;55;20998;-40
2022/11/15 22:53:09;;;;;;;184.75;123.40;;;21.30;56.60;;;;;;5167294;55;21160;-44
2022/11/15 22:58:10;;;;;;;170.57;117.85;;;21.30;56.60;;;;;;4817105;55;21006;-41
2022/11/15 23:03:11;;;;;;;165.05;114.22;;;21.30;56.50;;;;;;4850728;55;21005;-49
2022/11/15 23:08:12;;;;;;;172.62;117.07;;;21.30;56.50;;;;;;4744393;59;21018;-41
2022/11/15 23:13:16;;;;;;;166.40;113.78;;;21.30;56.50;;;;;;4882963;55;21050;-34
2022/11/15 23:18:17;;;;;;;175.55;118.10;;;21.30;56.50;;;;;;4923867;55;21078;-41
2022/11/15 23:23:18;;;;;;;172.18;117.03;;;21.30;56.40;;;;;;5097840;55;21030;-39
2022/11/15 23:28:19;;;;;;;165.02;113.72;;;21.30;56.50;;;;;;4775948;55;21018;-40
2022/11/15 23:38:40;;;;;;;165.32;113.43;;;21.30;56.40;;;;;;4743993;55;21082;-39
2022/11/15 23:43:41;;;;;;;156.07;109.85;;;21.30;56.40;;;;;;4745195;59;21011;-42
2022/11/15 23:48:42;;;;;;;160.30;111.68;;;21.30;57.00;;;;;;4869699;55;21429;-45
2022/11/15 23:53:42;;;;;;;160.00;111.43;;;21.30;56.50;;;;;;5117908;55;21524;-44
2022/11/15 23:58:44;;;;;;;152.30;106.60;;;21.30;56.30;;;;;;4801231;55;21018;-37
